createdAt,value
2018-06-10T00:01:24.575Z,20.40
2018-06-10T00:03:53.163Z,20.47
2018-06-10T00:06:21.810Z,21.93
2018-06-10T00:08:50.409Z,21.70
2018-06-10T00:11:18.976Z,20.37
2018-06-10T00:13:47.638Z,21.23
2018-06-10T00:16:16.212Z,20.23
2018-06-10T00:18:44.777Z,19.23
2018-06-10T00:21:13.377Z,17.97
2018-06-10T00:23:41.934Z,18.23
2018-06-10T00:26:10.530Z,18.97
2018-06-10T00:28:44.220Z,17.30
2018-06-10T00:31:12.820Z,16.90
2018-06-10T00:33:41.396Z,16.37
2018-06-10T00:36:09.963Z,18.27
2018-06-10T00:38:38.562Z,16.97
2018-06-10T00:41:07.157Z,17.00
2018-06-10T00:43:35.758Z,16.23
2018-06-10T00:46:04.360Z,16.70
2018-06-10T00:48:32.952Z,19.07
2018-06-10T00:51:01.643Z,17.77
2018-06-10T00:53:30.180Z,19.77
2018-06-10T00:55:58.853Z,23.40
2018-06-10T00:58:27.443Z,24.27
2018-06-10T01:00:56.007Z,27.53
2018-06-10T01:03:24.571Z,25.87
2018-06-10T01:05:53.210Z,22.17
2018-06-10T01:08:21.779Z,22.30
2018-06-10T01:10:50.395Z,23.73
2018-06-10T01:13:18.995Z,20.83
2018-06-10T01:15:47.560Z,20.50
2018-06-10T01:18:16.126Z,18.30
2018-06-10T01:20:44.763Z,15.57
2018-06-10T01:23:13.315Z,14.63
2018-06-10T01:25:41.866Z,14.83
2018-06-10T01:28:10.451Z,13.60
2018-06-10T01:30:39.032Z,12.77
2018-06-10T01:33:07.774Z,12.07
2018-06-10T01:35:36.359Z,13.23
2018-06-10T01:38:05.014Z,12.40
2018-06-10T01:40:33.570Z,14.33
2018-06-10T01:43:02.131Z,11.93
2018-06-10T01:45:30.720Z,13.30
2018-06-10T01:47:59.287Z,11.43
2018-06-10T01:50:27.873Z,12.30
2018-06-10T01:52:56.452Z,12.67
2018-06-10T01:55:25.031Z,12.13
2018-06-10T01:57:53.595Z,15.70
2018-06-10T02:00:22.147Z,13.30
2018-06-10T02:02:50.732Z,12.37
2018-06-10T02:05:19.287Z,14.10
2018-06-10T02:07:47.847Z,14.00
2018-06-10T02:10:16.400Z,13.27
2018-06-10T02:12:44.992Z,12.80
2018-06-10T02:15:13.562Z,13.20
2018-06-10T02:17:42.119Z,12.40
2018-06-10T02:20:10.700Z,12.27
2018-06-10T02:22:39.259Z,14.83
2018-06-10T02:25:07.808Z,13.37
2018-06-10T02:27:36.393Z,11.97
2018-06-10T02:30:06.936Z,12.37
2018-06-10T02:32:35.525Z,11.80
2018-06-10T02:35:04.128Z,12.77
2018-06-10T02:37:32.768Z,13.80
2018-06-10T02:40:01.327Z,13.80
2018-06-10T02:42:29.957Z,12.10
2018-06-10T02:44:58.559Z,13.03
2018-06-10T02:47:27.154Z,12.67
2018-06-10T02:49:55.738Z,11.63
2018-06-10T02:52:24.323Z,12.93
2018-06-10T02:54:52.896Z,12.43
2018-06-10T02:57:21.634Z,13.77
2018-06-10T02:59:50.217Z,13.23
2018-06-10T03:02:18.812Z,11.40
2018-06-10T03:04:47.387Z,13.27
2018-06-10T03:07:15.962Z,13.17
2018-06-10T03:09:44.506Z,12.63
2018-06-10T03:12:13.059Z,11.77
2018-06-10T03:14:41.651Z,12.57
2018-06-10T03:17:10.212Z,13.60
2018-06-10T03:19:38.816Z,12.67
2018-06-10T03:22:07.386Z,13.47
2018-06-10T03:24:35.952Z,12.10
2018-06-10T03:27:04.560Z,11.77
2018-06-10T03:29:33.231Z,12.60
2018-06-10T03:32:01.812Z,13.13
2018-06-10T03:34:30.424Z,11.73
2018-06-10T03:36:59.031Z,12.03
2018-06-10T03:39:27.599Z,12.13
2018-06-10T03:41:56.206Z,11.87
2018-06-10T03:44:24.792Z,11.83
2018-06-10T03:46:53.383Z,12.13
2018-06-10T03:49:21.930Z,12.53
2018-06-10T03:51:50.587Z,13.73
2018-06-10T03:54:19.158Z,14.87
2018-06-10T03:56:47.700Z,12.70
2018-06-10T03:59:16.367Z,15.03
2018-06-10T04:01:44.979Z,13.53
2018-06-10T04:04:13.531Z,13.83
2018-06-10T04:06:42.105Z,14.33
2018-06-10T04:09:10.699Z,13.37
2018-06-10T04:11:39.309Z,13.17
2018-06-10T04:14:07.885Z,13.37
2018-06-10T04:16:36.552Z,12.67
2018-06-10T04:19:05.119Z,11.63
2018-06-10T04:21:33.685Z,12.70
2018-06-10T04:24:02.554Z,12.00
2018-06-10T04:26:31.154Z,12.67
2018-06-10T04:28:59.711Z,13.30
2018-06-10T04:31:28.249Z,12.37
2018-06-10T04:33:56.837Z,11.83
2018-06-10T04:36:25.378Z,12.27
2018-06-10T04:38:53.950Z,15.00
2018-06-10T04:41:22.524Z,11.60
2018-06-10T04:43:51.054Z,11.90
2018-06-10T04:46:19.581Z,10.80
2018-06-10T04:48:48.176Z,10.60
2018-06-10T04:51:16.754Z,10.67
2018-06-10T04:53:45.337Z,10.67
2018-06-10T04:56:13.892Z,11.03
2018-06-10T04:58:42.477Z,10.20
2018-06-10T05:01:11.072Z,10.23
2018-06-10T05:03:39.628Z,9.40
2018-06-10T05:06:08.207Z,9.13
2018-06-10T05:08:36.794Z,10.50
2018-06-10T05:11:05.378Z,9.63
2018-06-10T05:13:34.038Z,9.77
2018-06-10T05:16:02.614Z,10.20
2018-06-10T05:18:31.189Z,12.77
2018-06-10T05:20:59.753Z,10.53
2018-06-10T05:23:28.307Z,11.03
2018-06-10T05:25:56.885Z,8.90
2018-06-10T05:28:25.411Z,10.27
2018-06-10T05:30:54.031Z,10.13
2018-06-10T05:33:22.648Z,12.00
2018-06-10T05:35:51.204Z,9.43
2018-06-10T05:38:19.795Z,8.80
2018-06-10T05:40:48.450Z,9.93
2018-06-10T05:43:17.087Z,9.93
2018-06-10T05:45:45.805Z,8.73
2018-06-10T05:48:14.331Z,9.50
2018-06-10T05:50:42.964Z,9.67
2018-06-10T05:53:11.528Z,9.10
2018-06-10T05:55:40.110Z,9.55
2018-06-10T05:58:08.666Z,9.53
2018-06-10T06:00:37.227Z,10.60
2018-06-10T06:03:06.131Z,10.75
2018-06-10T06:05:34.738Z,9.43
2018-06-10T06:08:03.300Z,8.90
2018-06-10T06:10:31.875Z,9.23
2018-06-10T06:13:00.491Z,9.10
2018-06-10T06:15:29.112Z,9.50
2018-06-10T06:17:57.634Z,8.90
2018-06-10T06:20:26.230Z,9.13
2018-06-10T06:22:54.936Z,9.58
2018-06-10T06:25:23.903Z,9.10
2018-06-10T06:27:52.427Z,8.48
2018-06-10T06:30:21.100Z,8.85
2018-06-10T06:32:49.657Z,9.30
2018-06-10T06:35:18.239Z,9.85
2018-06-10T06:37:46.917Z,9.48
2018-06-10T06:40:15.467Z,9.28
2018-06-10T06:42:44.122Z,10.18
2018-06-10T06:45:12.690Z,8.40
2018-06-10T06:47:41.254Z,9.20
2018-06-10T06:50:09.894Z,10.65
2018-06-10T06:52:38.537Z,9.45
2018-06-10T06:55:07.134Z,9.25
2018-06-10T06:57:35.734Z,9.60
2018-06-10T07:00:06.462Z,10.18
2018-06-10T07:02:35.087Z,9.75
2018-06-10T07:05:03.753Z,8.83
2018-06-10T07:07:32.339Z,9.40
2018-06-10T07:10:00.984Z,9.58
2018-06-10T07:12:29.620Z,9.80
2018-06-10T07:14:58.307Z,11.08
2018-06-10T07:17:26.956Z,10.50
2018-06-10T07:19:55.622Z,9.68
2018-06-10T07:22:24.291Z,9.68
2018-06-10T07:24:52.918Z,11.63
2018-06-10T07:27:21.546Z,9.23
2018-06-10T07:29:50.184Z,10.60
2018-06-10T07:32:18.860Z,10.00
2018-06-10T07:34:47.512Z,10.85
2018-06-10T07:37:16.208Z,13.13
2018-06-10T07:39:44.932Z,12.00
2018-06-10T07:42:13.554Z,11.35
2018-06-10T07:44:56.868Z,12.37
2018-06-10T07:47:25.500Z,11.00
2018-06-10T07:49:54.186Z,11.22
2018-06-10T07:52:22.835Z,14.53
2018-06-10T07:54:51.479Z,10.88
2018-06-10T07:57:20.101Z,11.10
2018-06-10T07:59:48.780Z,12.30
2018-06-10T08:02:17.463Z,10.82
2018-06-10T08:04:46.183Z,12.55
2018-06-10T08:07:15.037Z,11.73
2018-06-10T08:09:43.721Z,10.93
2018-06-10T08:12:12.485Z,13.00
2018-06-10T08:14:41.173Z,11.78
2018-06-10T08:17:09.822Z,11.33
2018-06-10T08:19:38.929Z,11.50
2018-06-10T08:22:07.540Z,12.05
2018-06-10T08:24:36.208Z,11.12
2018-06-10T08:27:04.885Z,11.22
2018-06-10T08:29:33.520Z,12.25
2018-06-10T08:32:02.802Z,11.53
2018-06-10T08:34:31.457Z,12.58
2018-06-10T08:37:00.133Z,12.60
2018-06-10T08:39:28.755Z,14.40
2018-06-10T08:41:57.392Z,12.88
2018-06-10T08:44:26.009Z,17.30
2018-06-10T08:46:54.710Z,14.55
2018-06-10T08:49:23.339Z,13.78
2018-06-10T08:51:52.040Z,13.10
2018-06-10T08:54:20.766Z,11.97
2018-06-10T08:56:49.461Z,13.20
2018-06-10T08:59:18.092Z,11.33
2018-06-10T09:01:46.765Z,11.70
2018-06-10T09:04:15.416Z,11.65
2018-06-10T09:06:44.047Z,12.07
2018-06-10T09:09:12.678Z,11.40
2018-06-10T09:11:41.420Z,11.75
2018-06-10T09:14:10.119Z,13.00
2018-06-10T09:16:38.789Z,14.53
2018-06-10T09:19:07.428Z,14.47
2018-06-10T09:21:36.081Z,14.03
2018-06-10T09:24:04.723Z,13.87
2018-06-10T09:26:33.344Z,10.90
2018-06-10T09:29:01.996Z,12.00
2018-06-10T09:31:30.652Z,11.13
2018-06-10T09:33:59.301Z,12.30
2018-06-10T09:36:27.883Z,13.30
2018-06-10T09:38:56.530Z,12.57
2018-06-10T09:41:25.146Z,8.47
2018-06-10T09:43:53.764Z,8.97
2018-06-10T09:46:22.394Z,13.23
2018-06-10T09:48:50.995Z,10.27
2018-06-10T09:51:19.619Z,11.57
2018-06-10T09:53:48.280Z,10.07
2018-06-10T09:56:17.247Z,12.23
2018-06-10T09:58:45.880Z,11.27
2018-06-10T10:01:14.565Z,10.73
2018-06-10T10:03:43.207Z,11.27
2018-06-10T10:06:12.744Z,10.67
2018-06-10T10:08:41.734Z,11.50
2018-06-10T10:11:11.388Z,9.00
2018-06-10T10:13:39.995Z,9.70
2018-06-10T10:16:08.722Z,10.45
2018-06-10T10:18:37.410Z,11.30
2018-06-10T10:21:06.070Z,10.20
2018-06-10T10:23:34.976Z,9.45
2018-06-10T10:26:03.622Z,10.50
2018-06-10T10:28:32.280Z,10.13
2018-06-10T10:31:00.873Z,10.15
2018-06-10T10:33:29.501Z,9.40
2018-06-10T10:35:58.226Z,10.30
2018-06-10T10:38:26.899Z,9.83
2018-06-10T10:40:55.608Z,10.30
2018-06-10T10:43:24.241Z,9.50
2018-06-10T10:45:52.892Z,10.70
2018-06-10T10:48:21.563Z,10.25
2018-06-10T10:50:50.246Z,10.23
2018-06-10T10:53:18.877Z,12.93
2018-06-10T10:55:47.753Z,10.55
2018-06-10T10:58:16.404Z,11.18
2018-06-10T11:00:45.078Z,11.12
2018-06-10T11:03:13.703Z,11.00
2018-06-10T11:05:42.391Z,11.15
2018-06-10T11:08:11.673Z,10.00
2018-06-10T11:10:40.319Z,10.15
2018-06-10T11:13:08.963Z,9.10
2018-06-10T11:15:37.574Z,9.20
2018-06-10T11:18:06.284Z,9.60
2018-06-10T11:20:35.290Z,9.83
2018-06-10T11:23:03.928Z,9.83
2018-06-10T11:25:32.558Z,9.78
2018-06-10T11:28:01.215Z,10.40
2018-06-10T11:30:29.880Z,9.63
2018-06-10T11:32:58.459Z,9.73
2018-06-10T11:35:27.052Z,9.33
2018-06-10T11:37:55.655Z,9.95
2018-06-10T11:40:24.250Z,9.70
2018-06-10T11:42:53.162Z,11.35
2018-06-10T11:45:21.805Z,10.23
2018-06-10T11:47:50.465Z,10.20
2018-06-10T11:50:19.062Z,10.78
2018-06-10T11:52:47.671Z,9.53
2018-06-10T11:55:16.295Z,9.80
2018-06-10T11:57:44.873Z,10.00
2018-06-10T12:00:13.506Z,8.98
2018-06-10T12:02:42.118Z,9.25
2018-06-10T12:05:10.803Z,9.18
2018-06-10T12:07:39.394Z,8.53
2018-06-10T12:10:08.007Z,9.70
2018-06-10T12:12:36.718Z,10.85
2018-06-10T12:15:05.336Z,10.08
2018-06-10T12:17:34.763Z,10.30
2018-06-10T12:20:03.452Z,10.80
2018-06-10T12:22:32.117Z,9.98
2018-06-10T12:25:00.733Z,11.15
2018-06-10T12:27:29.394Z,9.55
2018-06-10T12:29:57.978Z,9.78
2018-06-10T12:32:26.551Z,9.10
2018-06-10T12:34:55.171Z,9.65
2018-06-10T12:37:23.733Z,9.73
2018-06-10T12:39:52.391Z,13.70
2018-06-10T12:42:20.987Z,9.60
2018-06-10T12:44:49.619Z,10.85
2018-06-10T12:47:18.247Z,9.60
2018-06-10T12:49:46.855Z,9.20
2018-06-10T12:52:15.431Z,9.23
2018-06-10T12:54:44.046Z,9.23
2018-06-10T12:57:12.703Z,9.18
2018-06-10T12:59:41.420Z,9.55
2018-06-10T13:02:10.024Z,9.43
2018-06-10T13:04:38.606Z,8.98
2018-06-10T13:07:07.235Z,9.05
2018-06-10T13:09:35.952Z,12.28
2018-06-10T13:12:04.580Z,9.35
2018-06-10T13:14:33.213Z,21.95
2018-06-10T13:17:01.867Z,26.27
2018-06-10T13:19:30.479Z,9.55
2018-06-10T13:21:59.070Z,10.63
2018-06-10T13:24:27.767Z,10.45
2018-06-10T13:26:56.444Z,9.18
2018-06-10T13:29:25.087Z,9.28
2018-06-10T13:31:53.726Z,8.80
2018-06-10T13:34:22.610Z,9.28
2018-06-10T13:36:51.267Z,8.65
2018-06-10T13:39:19.901Z,9.10
2018-06-10T13:41:48.542Z,9.95
2018-06-10T13:44:17.407Z,10.13
2018-06-10T13:46:46.095Z,9.00
2018-06-10T13:49:14.758Z,9.40
2018-06-10T13:51:43.427Z,12.00
2018-06-10T13:54:12.426Z,10.00
2018-06-10T13:56:41.105Z,9.43
2018-06-10T13:59:09.746Z,9.30
2018-06-10T14:01:38.606Z,11.07
2018-06-10T14:04:07.294Z,11.67
2018-06-10T14:06:35.943Z,12.80
2018-06-10T14:09:06.203Z,9.10
2018-06-10T14:11:34.866Z,11.47
2018-06-10T14:14:03.778Z,11.40
2018-06-10T14:16:32.423Z,12.03
2018-06-10T14:19:01.448Z,21.80
2018-06-10T14:21:30.238Z,19.40
2018-06-10T14:23:58.937Z,8.63
2018-06-10T14:26:28.025Z,11.53
2018-06-10T14:28:56.880Z,9.57
2018-06-10T14:31:25.641Z,11.63
2018-06-10T14:33:54.281Z,9.87
2018-06-10T14:36:23.180Z,8.83
2018-06-10T14:38:51.791Z,11.27
2018-06-10T14:41:20.513Z,11.07
2018-06-10T14:43:49.489Z,10.77
2018-06-10T14:46:18.113Z,13.07
2018-06-10T14:48:47.283Z,10.53
2018-06-10T14:51:16.224Z,19.03
2018-06-10T14:53:45.412Z,26.70
2018-06-10T14:56:14.037Z,22.93
2018-06-10T14:58:42.974Z,15.80
2018-06-10T15:01:12.060Z,9.87
2018-06-10T15:03:40.818Z,14.80
2018-06-10T15:06:10.656Z,9.87
2018-06-10T15:08:39.344Z,12.43
2018-06-10T15:11:08.554Z,11.50
2018-06-10T15:13:37.683Z,14.87
2018-06-10T15:16:07.239Z,13.20
2018-06-10T15:18:35.850Z,12.70
2018-06-10T15:21:04.538Z,11.90
2018-06-10T15:23:33.610Z,9.70
2018-06-10T15:26:02.552Z,16.07
2018-06-10T15:28:31.714Z,9.07
2018-06-10T15:31:00.707Z,11.17
2018-06-10T15:33:29.884Z,9.80
2018-06-10T15:35:58.833Z,11.57
2018-06-10T15:38:27.570Z,10.33
2018-06-10T15:40:56.827Z,10.70
2018-06-10T15:43:26.102Z,10.27
2018-06-10T15:45:55.245Z,10.97
2018-06-10T15:48:24.734Z,12.23
2018-06-10T15:50:54.101Z,19.87
2018-06-10T15:53:23.283Z,12.10
2018-06-10T15:55:52.318Z,14.17
2018-06-10T15:58:22.206Z,12.33
2018-06-10T16:00:51.881Z,11.03
2018-06-10T16:03:22.260Z,13.60
2018-06-10T16:05:51.864Z,12.03
2018-06-10T16:08:20.840Z,11.77
2018-06-10T16:10:49.924Z,17.20
2018-06-10T16:13:19.468Z,10.03
2018-06-10T16:15:48.616Z,7.60
2018-06-10T16:18:17.653Z,8.90
2018-06-10T16:20:46.840Z,11.97
2018-06-10T16:23:16.038Z,13.43
2018-06-10T16:25:46.459Z,8.60
2018-06-10T16:28:16.452Z,8.87
2018-06-10T16:30:45.782Z,9.63
2018-06-10T16:33:14.982Z,8.23
2018-06-10T16:35:43.828Z,8.77
2018-06-10T16:38:13.813Z,7.73
2018-06-10T16:40:44.002Z,7.47
2018-06-10T16:43:13.192Z,7.77
2018-06-10T16:45:43.257Z,8.13
2018-06-10T16:48:13.364Z,6.70
2018-06-10T16:50:42.322Z,11.50
2018-06-10T16:53:11.917Z,7.77
2018-06-10T16:55:41.741Z,7.90
2018-06-10T16:58:10.437Z,8.20
2018-06-10T17:00:40.152Z,7.97
2018-06-10T17:03:09.588Z,10.53
2018-06-10T17:05:38.619Z,8.57
2018-06-10T17:08:08.254Z,7.93
2018-06-10T17:10:37.799Z,8.03
2018-06-10T17:13:07.588Z,8.27
2018-06-10T17:15:37.390Z,12.10
2018-06-10T17:18:06.108Z,7.47
2018-06-10T17:20:35.247Z,8.07
2018-06-10T17:23:04.786Z,10.80
2018-06-10T17:25:34.076Z,9.27
2018-06-10T17:28:02.709Z,9.00
2018-06-10T17:30:32.079Z,8.57
2018-06-10T17:33:01.403Z,10.43
2018-06-10T17:35:30.766Z,11.53
2018-06-10T17:37:59.410Z,9.23
2018-06-10T17:40:28.444Z,8.83
2018-06-10T17:42:57.842Z,10.63
2018-06-10T17:45:26.570Z,9.23
2018-06-10T17:47:55.704Z,11.27
2018-06-10T17:50:25.255Z,9.90
2018-06-10T17:52:54.913Z,15.20
2018-06-10T17:55:23.587Z,11.83
2018-06-10T17:57:52.521Z,10.13
2018-06-10T18:00:21.181Z,11.37
2018-06-10T18:02:49.792Z,12.03
2018-06-10T18:05:18.694Z,12.77
2018-06-10T18:07:47.953Z,11.73
2018-06-10T18:10:16.611Z,9.63
2018-06-10T18:12:45.578Z,9.53
2018-06-10T18:15:14.763Z,10.53
2018-06-10T18:17:43.647Z,9.00
2018-06-10T18:20:19.090Z,11.13
2018-06-10T18:22:47.743Z,9.67
2018-06-10T18:25:17.022Z,9.43
2018-06-10T18:27:46.175Z,9.83
2018-06-10T18:30:14.846Z,10.60
2018-06-10T18:32:43.523Z,9.67
2018-06-10T18:35:13.143Z,9.63
2018-06-10T18:37:41.803Z,10.40
2018-06-10T18:40:11.155Z,9.60
2018-06-10T18:42:39.891Z,8.77
2018-06-10T18:45:08.568Z,9.80
2018-06-10T18:47:37.416Z,10.90
2018-06-10T18:50:06.207Z,9.60
2018-06-10T18:52:35.287Z,12.00
2018-06-10T18:55:05.361Z,10.10
2018-06-10T18:57:34.089Z,8.83
2018-06-10T19:00:03.596Z,9.27
2018-06-10T19:02:32.361Z,9.83
2018-06-10T19:05:01.379Z,8.87
2018-06-10T19:07:30.252Z,10.23
2018-06-10T19:09:59.425Z,9.00
2018-06-10T19:12:28.362Z,8.57
2018-06-10T19:14:57.022Z,10.63
2018-06-10T19:17:25.951Z,10.83
2018-06-10T19:19:55.007Z,10.17
2018-06-10T19:22:23.987Z,9.97
2018-06-10T19:24:52.880Z,9.50
2018-06-10T19:27:22.132Z,9.43
2018-06-10T19:29:51.115Z,11.23
2018-06-10T19:32:20.104Z,9.20
2018-06-10T19:34:49.102Z,10.30
2018-06-10T19:37:17.775Z,8.63
2018-06-10T19:39:46.526Z,10.33
2018-06-10T19:42:15.312Z,13.30
2018-06-10T19:44:43.922Z,9.87
2018-06-10T19:47:12.798Z,9.23
2018-06-10T19:49:41.494Z,11.43
2018-06-10T19:52:10.114Z,8.63
2018-06-10T19:54:39.090Z,10.67
2018-06-10T19:57:07.999Z,9.33
2018-06-10T19:59:36.950Z,9.80
2018-06-10T20:02:05.645Z,9.63
2018-06-10T20:04:34.261Z,9.90
2018-06-10T20:07:02.975Z,9.83
2018-06-10T20:09:31.666Z,7.87
2018-06-10T20:12:00.333Z,9.20
2018-06-10T20:14:28.955Z,8.60
2018-06-10T20:16:57.624Z,12.93
2018-06-10T20:19:26.617Z,10.70
2018-06-10T20:21:55.269Z,10.00
2018-06-10T20:24:23.900Z,10.73
2018-06-10T20:26:52.531Z,8.97
2018-06-10T20:29:21.180Z,9.00
2018-06-10T20:31:49.782Z,9.40
2018-06-10T20:34:18.391Z,9.13
2018-06-10T20:36:47.016Z,14.53
2018-06-10T20:39:15.673Z,10.43
2018-06-10T20:41:44.252Z,9.40
2018-06-10T20:44:12.895Z,11.17
2018-06-10T20:46:41.531Z,12.10
2018-06-10T20:49:10.203Z,9.73
2018-06-10T20:51:38.794Z,10.90
2018-06-10T20:54:07.423Z,12.57
2018-06-10T20:56:36.346Z,9.63
2018-06-10T20:59:05.004Z,8.93
2018-06-10T21:01:33.647Z,7.93
2018-06-10T21:04:02.380Z,9.50
2018-06-10T21:06:31.008Z,9.57
2018-06-10T21:08:59.656Z,11.73
2018-06-10T21:11:28.288Z,15.63
2018-06-10T21:13:56.909Z,41.30
2018-06-10T21:16:25.584Z,19.10
2018-06-10T21:18:54.507Z,12.03
2018-06-10T21:21:23.183Z,11.60
2018-06-10T21:23:52.470Z,10.23
2018-06-10T21:26:21.122Z,14.50
2018-06-10T21:28:50.161Z,8.73
2018-06-10T21:31:19.478Z,9.53
2018-06-10T21:33:48.088Z,11.13
2018-06-10T21:36:17.039Z,11.13
2018-06-10T21:38:45.655Z,11.87
2018-06-10T21:41:14.253Z,11.67
2018-06-10T21:43:42.877Z,12.47
2018-06-10T21:46:11.494Z,9.80
2018-06-10T21:48:40.159Z,11.47
2018-06-10T21:51:08.824Z,9.47
2018-06-10T21:53:37.467Z,9.33
2018-06-10T21:56:06.091Z,9.43
2018-06-10T21:58:35.687Z,12.93
2018-06-10T22:01:04.443Z,8.90
2018-06-10T22:03:34.196Z,10.87
2018-06-10T22:06:02.804Z,9.67
2018-06-10T22:08:31.452Z,11.43
2018-06-10T22:11:00.675Z,10.27
2018-06-10T22:13:29.694Z,12.17
2018-06-10T22:15:58.346Z,10.67
2018-06-10T22:18:27.274Z,10.13
2018-06-10T22:20:55.875Z,10.93
2018-06-10T22:23:24.521Z,10.33
2018-06-10T22:25:53.762Z,10.33
2018-06-10T22:28:22.346Z,11.03
2018-06-10T22:30:50.930Z,10.67
2018-06-10T22:33:19.611Z,10.53
2018-06-10T22:35:48.286Z,10.10
2018-06-10T22:38:16.970Z,11.70
2018-06-10T22:40:45.988Z,11.20
2018-06-10T22:43:15.190Z,10.90
2018-06-10T22:45:44.076Z,11.97
2018-06-10T22:48:13.937Z,9.80
2018-06-10T22:50:42.866Z,9.90
2018-06-10T22:54:21.182Z,9.47
2018-06-10T22:56:50.154Z,11.50
2018-06-10T22:59:19.071Z,10.23
2018-06-10T23:01:48.262Z,11.43
2018-06-10T23:04:17.240Z,9.77
2018-06-10T23:06:45.882Z,11.73
2018-06-10T23:09:14.778Z,11.00
2018-06-10T23:11:43.826Z,11.33
2018-06-10T23:14:12.678Z,13.07
2018-06-10T23:16:41.263Z,12.10
2018-06-10T23:19:09.906Z,11.03
2018-06-10T23:21:38.839Z,11.87
2018-06-10T23:24:07.510Z,12.03
2018-06-10T23:26:36.490Z,11.17
2018-06-10T23:29:05.135Z,11.00
2018-06-10T23:31:34.056Z,11.30
2018-06-10T23:34:03.055Z,11.80
2018-06-10T23:36:32.012Z,11.07
2018-06-10T23:39:01.038Z,10.57
2018-06-10T23:41:30.305Z,11.83
2018-06-10T23:43:58.970Z,10.50
2018-06-10T23:46:27.941Z,9.30
2018-06-10T23:48:56.932Z,9.70
2018-06-10T23:51:25.671Z,10.97
2018-06-10T23:53:54.326Z,12.57
2018-06-10T23:56:22.933Z,9.20
2018-06-10T23:58:52.458Z,8.23
